Wednesday, September 19, 2018, 3:12 AM GMT
Back to Local

CYQY, Sydney, N. S.

Location: , , Canada Lat: 46.167
Local Time: 3:12 AM GMT ( 3:12 GMT) Lon: -60.05
Time Zone: GMT Elev: 183 ft

Show me the last for .
Show Decoded

2018-09-19 02:00 METAR CYQY 190200Z 06016G23KT 3SM RA BR OVC007 11/10 A2990 RMK NS8 SLP127 =
2018-09-19 01:21 METAR CYQY 190121Z 07014G21KT 3SM RA BR OVC008 11/11 A2989 RMK NS8 SLP124 =
2018-09-19 01:16 METAR CYQY 190116Z 06013G19KT 3SM -RA BR OVC008 11/11 A2989 RMK NS8 SLP125 =
2018-09-19 01:00 METAR CYQY 190100Z 06015G20KT 2SM -RA BR OVC007 11/11 A2989 RMK NS8 SLP123 =
2018-09-19 00:00 METAR CYQY 190000Z 07011G21KT 2SM -RA BR OVC006 11/11 A2987 RMK NS8 SLP117 =
2018-09-18 23:18 METAR CYQY 182318Z 07012G20KT 3SM -RA BR BKN006 OVC014 12/11 A2985 RMK SC6SC2
                 SLP111 =
2018-09-18 23:00 METAR CYQY 182300Z 06015G22KT 2SM -RADZ BR BKN005 OVC012 12/11 A2985 RMK ST6SC2
                 SLP110 =
2018-09-18 22:08 METAR CYQY 182208Z 06012G19KT 2SM -RADZ BR BKN005 OVC009 12/12 A2982 RMK ST6SC2
                 SLP101 =
2018-09-18 22:00 METAR CYQY 182200Z 07011G17KT 1SM R06/P6000FT/U -RADZ BR BKN003 OVC007 12/12
                 A2982 RMK ST6SC2 SLP099 =
2018-09-18 21:00 METAR CYQY 182100Z 06010G20KT 1SM R06/P6000FT/D -RADZ BR BKN003 OVC005 13/13
                 A2980 RMK ST6SC2 SLP094 =
2018-09-18 20:37 METAR CYQY 182037Z 07011G19KT 1SM R06/P6000FT/D -RADZ BR BKN003 OVC005 14/13
                 A2979 RMK ST6SC2 SLP089 DENSITY ALT 300FT =
2018-09-18 20:00 METAR CYQY 182000Z 06012G20KT 1 1/2SM -DZ BR OVC003 14/13 A2978 RMK ST8 SLP086
                 DENSITY ALT 300FT =
2018-09-18 19:00 METAR CYQY 181900Z 05009G15KT 1 1/2SM -DZ BR OVC003 16/15 A2976 RMK ST8 SLP078
                 DENSITY ALT 600FT =
2018-09-18 18:44 METAR CYQY 181844Z 05011G17KT 1 1/2SM -DZ BR OVC003 16/15 A2975 RMK ST8 SLP076
                 DENSITY ALT 700FT =
2018-09-18 18:37 METAR CYQY 181837Z 04009KT 3SM -DZ OVC004 17/16 A2975 RMK ST8 VIS S 10 PRESRR
                 SLP076 DENSITY ALT 700FT =
2018-09-18 18:13 METAR CYQY 181813Z 04011KT 10SM -DZ BKN005 BKN017 OVC027 18/17 A2973 RMK
                 ST5SC2SC1 VIS N 5 SLP068 DENSITY ALT 900FT =
2018-09-18 18:00 METAR CYQY 181800Z 01011KT 10SM FEW008 BKN018 OVC028 19/17 A2972 RMK ST1SC6SC1
                 VIS N 5 SLP065 DENSITY ALT 1000FT =
2018-09-18 17:00 METAR CYQY 181700Z 26011KT 15SM SCT017 BKN027 BKN048 BKN100 OVC240 23/18 A2971
                 RMK SC3SC2SC1AC1CI1 SLP061 DENSITY ALT 1400FT =
2018-09-18 16:00 METAR CYQY 181600Z 27010G19KT 230V310 15SM BKN017 BKN120 BKN240 22/18 A2970 RMK
                 SC5AC1CI1 SLP059 DENSITY ALT 1300FT =
2018-09-18 15:39 METAR CYQY 181539Z 29016G23KT 15SM BKN016 BKN240 23/18 A2970 RMK SC6CI1 PRESRR
                 SLP059 DENSITY ALT 1500FT =
2018-09-18 15:00 METAR CYQY 181500Z 28018KT 15SM FEW017 SCT120 SCT240 23/18 A2969 RMK SC2AC1CI1
                 SLP054 DENSITY ALT 1500FT =
2018-09-18 14:22 METAR CYQY 181422Z 27018G23KT 15SM FEW017 SCT120 SCT240 23/18 A2968 RMK
                 SC2AC1CI1 PRESFR SLP052 DENSITY ALT 1500FT =
2018-09-18 14:00 METAR CYQY 181400Z 26014KT 15SM BKN016 BKN120 22/18 A2970 RMK SC7AC1 AC TR
                 SLP059 DENSITY ALT 1300FT =
2018-09-18 13:11 METAR CYQY 181311Z 25012KT 220V280 15SM SCT013 BKN120 21/18 A2970 RMK SC3AC4
                 SLP057 DENSITY ALT 1300FT =
2018-09-18 13:00 METAR CYQY 181300Z 24010G17KT 210V270 15SM BKN013 BKN120 20/17 A2970 RMK SC5AC2
                 SLP059 DENSITY ALT 1200FT =
2018-09-18 12:29 METAR CYQY 181229Z 26012KT 15SM BKN014 20/17 A2971 RMK SC7 SLP063 DENSITY ALT
                 1100FT =
2018-09-18 12:14 METAR CYQY 181214Z 25009G16KT 15SM BKN016 BKN110 20/17 A2970 RMK SC5AC2 SLP060
                 DENSITY ALT 1100FT =
2018-09-18 12:00 METAR CYQY 181200Z 24011KT 15SM FEW017 BKN110 BKN140 20/17 A2971 RMK CU2AC3AC1
                 SLP061 DENSITY ALT 1100FT =
2018-09-18 11:00 METAR CYQY 181100Z 24008KT 15SM FEW100 SCT140 18/16 A2972 RMK AC2AC1 SLP064
                 DENSITY ALT 800FT =
2018-09-18 10:00 METAR CYQY 181000Z 23008KT 15SM SCT100 BKN140 16/15 A2973 RMK AC3AC2 SLP068
                 DENSITY ALT 700FT =
2018-09-18 09:00 METAR CYQY 180900Z 23010KT 15SM SCT090 SCT140 17/15 A2973 RMK AC3AC1 SLP068
                 DENSITY ALT 700FT =
2018-09-18 08:00 METAR CYQY 180800Z 22008KT 15SM SCT095 17/15 A2974 RMK AC4 SLP071 DENSITY ALT
                 800FT =
2018-09-18 07:00 METAR CYQY 180700Z 24008KT 15SM SCT130 18/16 A2975 RMK AC4 SLP075 DENSITY ALT
                 800FT =
2018-09-18 06:00 METAR CYQY 180600Z 24010KT 15SM SCT120 18/17 A2977 RMK AS4 SLP082 DENSITY ALT
                 900FT =
2018-09-18 05:00 METAR CYQY 180500Z 24011KT 15SM SKC 18/17 A2978 RMK SLP085 DENSITY ALT 800FT =
2018-09-18 04:00 METAR CYQY 180400Z 25010G16KT 15SM SKC 19/18 A2979 RMK SLP090 DENSITY ALT 900FT
                 =

Support USWX by starting your Amazon purchase here.